McNabs Island, Nova Scotia

Past 24 Hour Conditions

This table is a summary of hourly weather conditions for the past 24 hours. This summary includes the following parameters: temperature, humidity, dew point, wind speed and direction, air pressure, visibility and/or wind chill and humidex.
Date / Time
(ADT)
Conditions Temp (°C) Humidity (%) Dew Point (°C) Wind (km/h) Pressure (kPa) Visibility (km)
21 April 2014
11:00 N/A 7 54 -1 SSW 14 gust 27 102.2 N/A
10:00 N/A 7 55 -1 SW 10 102.2 N/A
9:00 N/A 5 74 1 SW 4 102.3 N/A
8:00 N/A 3 86 1 SSE 4 102.4 N/A
7:00 N/A 0   94 -1 ESE 2 102.4 N/A
6:00 N/A 0   94 -1 calm 102.4 N/A
5:00 N/A 1 93 0 calm 102.5 N/A
4:00 N/A 1 92 0 calm 102.5 N/A
3:00 N/A 2 91 0 calm 102.6 N/A
2:00 N/A 2 88 0 calm 102.7 N/A
1:00 N/A 3 86 1 SW 4 102.7 N/A
00:00 N/A 3 84 1 calm 102.8 N/A
20 April 2014
23:00 N/A 3 82 0 NNW 2 102.8 N/A
22:00 N/A 3 78 0 NNW 2 102.9 N/A
21:00 N/A 3 78 0 WNW 3 102.9 N/A
20:00 N/A 6 66 0 SW 12 102.8 N/A
19:00 N/A 9 37 -5 WNW 4 102.8 N/A
18:00 N/A 10   36 -4 NW 8 102.8 N/A
17:00 N/A 10   39 -3 WNW 7 102.8 N/A
16:00 N/A 10   39 -4 WNW 8 102.8 N/A
15:00 N/A 9 42 -3 WNW 8 102.9 N/A
14:00 N/A 9 49 -2 WNW 11 102.9 N/A
13:00 N/A 7 54 -2 NW 10 103.0 N/A
12:00 N/A 6 61 -1 NW 8 103.0 N/A
11:00 N/A 5 62 -2 WNW 12 103.0 N/A
N/A
Not available
 ↑ 
Highest temperature
 ↓ 
Lowest temperature

If you require additional historical weather information, please visit Climate Data Online.